createdAt,value
2022-08-04T00:02:09.641Z,21.01
2022-08-04T00:04:46.018Z,21.01
2022-08-04T00:07:20.247Z,20.98
2022-08-04T00:10:09.994Z,20.95
2022-08-04T00:12:42.960Z,21.00
2022-08-04T00:15:15.055Z,21.03
2022-08-04T00:17:47.770Z,20.93
2022-08-04T00:20:21.480Z,21.04
2022-08-04T00:22:53.370Z,21.19
2022-08-04T00:25:21.342Z,21.12
2022-08-04T00:27:50.104Z,21.06
2022-08-04T00:30:18.362Z,21.03
2022-08-04T00:32:46.877Z,20.96
2022-08-04T00:35:15.976Z,20.97
2022-08-04T00:37:46.183Z,20.93
2022-08-04T00:40:25.751Z,20.97
2022-08-04T00:43:10.181Z,20.95
2022-08-04T00:46:18.612Z,20.92
2022-08-04T00:48:57.964Z,20.81
2022-08-04T00:51:39.133Z,20.84
2022-08-04T00:54:13.754Z,20.70
2022-08-04T00:57:03.834Z,20.74
2022-08-04T00:59:52.342Z,20.71
2022-08-04T01:02:29.919Z,20.68
2022-08-04T01:05:05.647Z,20.65
2022-08-04T01:07:58.457Z,20.61
2022-08-04T01:10:39.025Z,20.75
2022-08-04T01:13:26.870Z,21.15
2022-08-04T01:16:00.825Z,21.34
2022-08-04T01:18:37.046Z,21.50
2022-08-04T01:21:24.005Z,21.61
2022-08-04T01:24:13.909Z,21.55
2022-08-04T01:26:57.791Z,21.59
2022-08-04T01:29:46.422Z,21.61
2022-08-04T01:32:25.635Z,21.55
2022-08-04T01:35:02.355Z,21.34
2022-08-04T01:37:50.313Z,21.20
2022-08-04T01:40:18.837Z,21.03
2022-08-04T01:42:47.492Z,21.07
2022-08-04T01:45:17.092Z,21.14
2022-08-04T01:47:51.873Z,20.93
2022-08-04T01:50:20.765Z,20.89
2022-08-04T01:52:51.330Z,20.85
2022-08-04T01:55:19.944Z,20.84
2022-08-04T01:57:49.855Z,20.79
2022-08-04T02:00:21.445Z,20.87
2022-08-04T02:02:50.402Z,20.83
2022-08-04T02:05:21.258Z,20.76
2022-08-04T02:08:01.603Z,20.74
2022-08-04T02:10:31.921Z,20.67
2022-08-04T02:13:12.107Z,20.67
2022-08-04T02:15:54.552Z,20.67
2022-08-04T02:18:26.050Z,20.69
2022-08-04T02:20:59.213Z,20.66
2022-08-04T02:23:32.502Z,20.66
2022-08-04T02:26:03.712Z,20.61
2022-08-04T02:28:36.537Z,20.42
2022-08-04T02:31:29.409Z,20.28
2022-08-04T02:34:07.342Z,20.48
2022-08-04T02:36:38.578Z,20.60
2022-08-04T02:39:08.267Z,20.87
2022-08-04T02:41:37.307Z,20.79
2022-08-04T02:44:07.910Z,20.72
2022-08-04T02:46:38.706Z,20.60
2022-08-04T02:49:09.353Z,20.50
2022-08-04T02:51:39.436Z,20.41
2022-08-04T02:54:08.685Z,20.41
2022-08-04T02:56:38.953Z,20.50
2022-08-04T02:59:10.615Z,20.45
2022-08-04T03:01:56.815Z,20.49
2022-08-04T03:04:42.778Z,20.32
2022-08-04T03:07:59.323Z,20.36
2022-08-04T03:10:56.262Z,20.52
2022-08-04T03:13:41.485Z,20.38
2022-08-04T03:16:38.706Z,20.46
2022-08-04T03:19:49.604Z,20.62
2022-08-04T03:23:13.363Z,20.65
2022-08-04T03:26:04.267Z,20.67
2022-08-04T03:29:35.196Z,21.06
2022-08-04T03:32:53.426Z,21.01
2022-08-04T03:35:46.113Z,21.01
2022-08-04T03:38:41.373Z,21.34
2022-08-04T03:41:54.927Z,21.35
2022-08-04T03:44:47.477Z,21.69
2022-08-04T03:47:29.672Z,21.61
2022-08-04T03:50:29.038Z,21.63
2022-08-04T03:53:23.880Z,21.52
2022-08-04T03:56:35.975Z,21.52
2022-08-04T03:59:33.799Z,21.59
2022-08-04T04:02:21.962Z,21.60
2022-08-04T04:05:17.008Z,21.48
2022-08-04T04:08:19.423Z,21.23
2022-08-04T04:11:19.239Z,21.24
2022-08-04T04:14:07.524Z,21.40
2022-08-04T04:17:05.612Z,21.42
2022-08-04T04:20:01.340Z,21.79
2022-08-04T04:22:46.292Z,21.64
2022-08-04T04:25:26.090Z,21.95
2022-08-04T04:28:45.865Z,21.98
2022-08-04T04:31:36.182Z,21.98
2022-08-04T04:34:13.527Z,21.86
2022-08-04T04:36:53.667Z,21.98
2022-08-04T04:39:32.321Z,22.08
2022-08-04T04:42:37.339Z,22.16
2022-08-04T04:45:19.447Z,22.25
2022-08-04T04:48:08.662Z,22.32
2022-08-04T04:50:53.219Z,22.37
2022-08-04T04:53:28.604Z,22.47
2022-08-04T04:56:04.822Z,22.66
2022-08-04T04:58:35.282Z,22.65
2022-08-04T05:01:31.410Z,22.72
2022-08-04T05:04:21.296Z,22.72
2022-08-04T05:07:11.607Z,22.87
2022-08-04T05:09:53.467Z,22.91
2022-08-04T05:14:32.612Z,23.18
2022-08-04T05:15:36.916Z,23.43
2022-08-04T05:18:10.740Z,23.69
2022-08-04T05:20:44.993Z,23.73
2022-08-04T05:23:17.367Z,23.58
2022-08-04T05:25:59.580Z,23.72
2022-08-04T05:28:31.640Z,23.85
2022-08-04T05:31:02.966Z,24.14
2022-08-04T05:33:36.165Z,24.25
2022-08-04T05:36:19.058Z,24.16
2022-08-04T05:38:55.401Z,24.22
2022-08-04T05:41:32.181Z,24.01
2022-08-04T05:44:13.381Z,24.39
2022-08-04T05:46:42.734Z,24.45
2022-08-04T05:49:16.510Z,24.52
2022-08-04T05:51:50.649Z,24.53
2022-08-04T05:54:21.064Z,24.53
2022-08-04T05:56:50.925Z,24.31
2022-08-04T05:59:20.719Z,24.56
2022-08-04T06:01:55.652Z,24.75
2022-08-04T06:04:29.517Z,24.66
2022-08-04T06:06:59.012Z,24.84
2022-08-04T06:09:27.205Z,24.68
2022-08-04T06:12:00.482Z,24.78
2022-08-04T06:14:35.011Z,25.19
2022-08-04T06:17:05.995Z,24.98
2022-08-04T06:20:17.826Z,25.37
2022-08-04T06:22:48.567Z,25.62
2022-08-04T06:25:20.638Z,25.32
2022-08-04T06:27:50.484Z,25.46
2022-08-04T06:30:19.926Z,25.40
2022-08-04T06:33:03.443Z,25.60
2022-08-04T06:35:34.552Z,25.85
2022-08-04T06:38:04.566Z,25.60
2022-08-04T06:40:34.900Z,25.71
2022-08-04T06:43:05.555Z,25.78
2022-08-04T06:45:36.124Z,26.55
2022-08-04T06:48:06.218Z,26.46
2022-08-04T06:51:24.372Z,26.37
2022-08-04T06:53:27.204Z,26.70
2022-08-04T06:55:56.131Z,26.76
2022-08-04T06:58:25.747Z,26.78
2022-08-04T07:00:55.889Z,27.15
2022-08-04T07:03:24.029Z,30.54
2022-08-04T07:05:52.555Z,33.48
2022-08-04T07:08:21.767Z,33.65
2022-08-04T07:10:54.255Z,34.85
2022-08-04T07:13:24.402Z,36.57
2022-08-04T07:15:53.633Z,35.27
2022-08-04T07:18:21.675Z,37.42
2022-08-04T07:20:50.095Z,37.12
2022-08-04T07:23:25.095Z,36.21
2022-08-04T07:25:59.671Z,39.15
2022-08-04T07:28:41.306Z,36.71
2022-08-04T07:31:34.685Z,37.36
2022-08-04T07:34:16.676Z,40.29
2022-08-04T07:36:55.078Z,38.49
2022-08-04T07:39:28.031Z,37.78
2022-08-04T07:42:01.459Z,39.00
2022-08-04T07:44:31.953Z,40.81
2022-08-04T07:47:01.487Z,41.12
2022-08-04T07:49:54.224Z,40.38
2022-08-04T07:52:18.226Z,38.65
2022-08-04T07:54:46.795Z,37.04
2022-08-04T07:57:29.027Z,36.41
2022-08-04T08:00:08.788Z,39.73
2022-08-04T08:02:43.468Z,38.61
2022-08-04T08:05:16.715Z,39.05
2022-08-04T08:07:51.029Z,42.37
2022-08-04T08:10:22.815Z,41.17
2022-08-04T08:12:53.264Z,41.45
2022-08-04T08:15:22.171Z,39.28
2022-08-04T08:17:59.096Z,39.01
2022-08-04T08:20:32.796Z,37.40
2022-08-04T08:23:02.739Z,37.45
2022-08-04T08:25:31.930Z,40.38
2022-08-04T08:28:03.612Z,40.50
2022-08-04T08:30:32.874Z,40.02
2022-08-04T08:33:03.941Z,41.02
2022-08-04T08:35:49.921Z,38.75
2022-08-04T08:38:30.136Z,39.64
2022-08-04T08:41:22.138Z,40.75
2022-08-04T08:44:29.783Z,41.21
2022-08-04T08:47:18.410Z,40.82
2022-08-04T08:50:17.820Z,40.98
2022-08-04T08:53:18.022Z,39.98
2022-08-04T08:56:02.987Z,40.08
2022-08-04T08:58:44.214Z,41.68
2022-08-04T09:01:30.328Z,41.21
2022-08-04T09:04:37.087Z,38.61
2022-08-04T09:07:22.457Z,39.81
2022-08-04T09:10:01.503Z,41.70
2022-08-04T09:12:34.606Z,41.89
2022-08-04T09:15:06.593Z,42.51
2022-08-04T09:17:42.523Z,41.35
2022-08-04T09:20:16.449Z,41.61
2022-08-04T09:22:50.705Z,41.79
2022-08-04T09:25:25.295Z,41.23
2022-08-04T09:27:55.797Z,42.30
2022-08-04T09:30:32.354Z,42.74
2022-08-04T09:33:13.143Z,41.30
2022-08-04T09:35:50.011Z,40.41
2022-08-04T09:38:28.933Z,42.00
2022-08-04T09:41:20.835Z,41.84
2022-08-04T09:44:51.118Z,42.04
2022-08-04T09:46:59.692Z,40.76
2022-08-04T09:49:35.443Z,41.89
2022-08-04T09:52:11.116Z,40.64
2022-08-04T09:54:47.954Z,40.97
2022-08-04T09:57:27.780Z,37.93
2022-08-04T10:00:02.624Z,39.35
2022-08-04T10:02:45.319Z,40.51
2022-08-04T10:05:18.030Z,39.59
2022-08-04T10:08:10.901Z,41.53
2022-08-04T10:10:55.858Z,38.00
2022-08-04T10:13:30.290Z,38.37
2022-08-04T10:16:21.626Z,37.23
2022-08-04T10:19:08.222Z,38.40
2022-08-04T10:21:59.292Z,38.60
2022-08-04T10:24:49.684Z,37.34
2022-08-04T10:27:26.051Z,37.30
2022-08-04T10:29:58.778Z,38.33
2022-08-04T10:32:34.207Z,39.37
2022-08-04T10:35:10.730Z,39.72
2022-08-04T10:38:00.311Z,39.22
2022-08-04T10:40:37.465Z,37.46
2022-08-04T10:43:20.972Z,37.44
2022-08-04T10:45:58.062Z,39.29
2022-08-04T10:48:37.495Z,39.28
2022-08-04T10:51:20.116Z,38.13
2022-08-04T10:53:55.773Z,36.87
2022-08-04T10:56:32.995Z,38.41
2022-08-04T10:59:05.335Z,38.90
2022-08-04T11:02:00.549Z,36.46
2022-08-04T11:04:32.600Z,38.99
2022-08-04T11:07:01.737Z,38.85
2022-08-04T11:09:34.925Z,38.55
2022-08-04T11:12:11.381Z,37.72
2022-08-04T11:14:48.056Z,37.87
2022-08-04T11:17:23.442Z,38.28
2022-08-04T11:20:24.896Z,38.19
2022-08-04T11:22:59.496Z,36.10
2022-08-04T11:25:35.618Z,36.45
2022-08-04T11:28:10.476Z,37.20
2022-08-04T11:30:43.965Z,37.46
2022-08-04T11:33:22.948Z,36.17
2022-08-04T11:35:59.003Z,37.12
2022-08-04T11:38:32.980Z,38.08
2022-08-04T11:41:11.876Z,38.23
2022-08-04T11:43:56.183Z,36.88
2022-08-04T11:46:38.377Z,37.22
2022-08-04T11:49:09.460Z,37.09
2022-08-04T11:51:38.152Z,36.90
2022-08-04T11:54:06.459Z,37.68
2022-08-04T11:56:38.299Z,37.90
2022-08-04T11:59:08.733Z,36.43
2022-08-04T12:01:48.828Z,37.22
2022-08-04T12:04:24.125Z,36.18
2022-08-04T12:07:21.693Z,36.75
2022-08-04T12:09:50.899Z,37.20
2022-08-04T12:12:29.835Z,37.54
2022-08-04T12:15:04.935Z,36.92
2022-08-04T12:17:52.660Z,36.51
2022-08-04T12:20:35.652Z,37.35
2022-08-04T12:23:17.155Z,37.76
2022-08-04T12:25:49.240Z,37.50
2022-08-04T12:28:26.191Z,37.54
2022-08-04T12:31:05.281Z,35.73
2022-08-04T12:34:05.349Z,35.12
2022-08-04T12:36:41.647Z,36.58
2022-08-04T12:39:13.962Z,35.81
2022-08-04T12:41:53.916Z,35.37
2022-08-04T12:44:37.352Z,36.42
2022-08-04T12:47:28.198Z,36.02
2022-08-04T12:50:03.151Z,36.72
2022-08-04T12:53:00.267Z,35.50
2022-08-04T12:55:28.790Z,37.37
2022-08-04T12:57:58.418Z,36.92
2022-08-04T13:00:40.772Z,36.67
2022-08-04T13:03:13.317Z,36.51
2022-08-04T13:05:43.164Z,36.70
2022-08-04T13:08:12.675Z,36.66
2022-08-04T13:10:43.230Z,35.23
2022-08-04T13:13:17.962Z,35.24
2022-08-04T13:15:58.240Z,36.45
2022-08-04T13:18:31.876Z,36.03
2022-08-04T13:21:19.357Z,37.29
2022-08-04T13:24:10.382Z,36.76
2022-08-04T13:26:55.321Z,35.72
2022-08-04T13:30:00.645Z,35.82
2022-08-04T13:32:22.384Z,37.13
2022-08-04T13:34:53.750Z,37.89
2022-08-04T13:37:26.454Z,37.76
2022-08-04T13:39:56.829Z,36.76
2022-08-04T13:42:27.513Z,35.89
2022-08-04T13:44:58.314Z,38.00
2022-08-04T13:47:31.313Z,37.21
2022-08-04T13:50:16.423Z,36.16
2022-08-04T13:52:45.607Z,36.57
2022-08-04T13:55:21.690Z,36.52
2022-08-04T13:57:54.365Z,37.49
2022-08-04T14:00:29.480Z,36.51
2022-08-04T14:03:23.743Z,37.09
2022-08-04T14:06:16.270Z,37.02
2022-08-04T14:08:51.475Z,36.45
2022-08-04T14:12:09.243Z,36.50
2022-08-04T14:14:16.017Z,36.78
2022-08-04T14:17:00.154Z,35.81
2022-08-04T14:19:36.116Z,36.06
2022-08-04T14:22:04.761Z,36.58
2022-08-04T14:24:32.845Z,35.65
2022-08-04T14:27:01.495Z,35.94
2022-08-04T14:29:39.296Z,37.12
2022-08-04T14:32:14.506Z,37.41
2022-08-04T14:34:46.755Z,37.49
2022-08-04T14:37:19.722Z,37.61
2022-08-04T14:40:08.357Z,36.16
2022-08-04T14:42:43.962Z,36.53
2022-08-04T14:45:12.417Z,36.55
2022-08-04T14:47:52.469Z,37.10
2022-08-04T14:50:34.531Z,38.57
2022-08-04T14:53:08.028Z,38.04
2022-08-04T14:55:36.851Z,37.34
2022-08-04T14:58:33.800Z,36.68
2022-08-04T15:00:55.713Z,35.54
2022-08-04T15:03:24.519Z,36.36
2022-08-04T15:06:01.610Z,36.62
2022-08-04T15:08:32.454Z,35.83
2022-08-04T15:11:02.989Z,35.92
2022-08-04T15:13:32.530Z,36.58
2022-08-04T15:16:07.356Z,37.34
2022-08-04T15:18:39.170Z,37.39
2022-08-04T15:21:09.287Z,36.99
2022-08-04T15:23:39.608Z,36.63
2022-08-04T15:26:12.818Z,36.16
2022-08-04T15:28:43.397Z,36.54
2022-08-04T15:32:04.437Z,35.50
2022-08-04T15:34:26.619Z,36.04
2022-08-04T15:37:02.420Z,36.32
2022-08-04T15:39:37.132Z,35.86
2022-08-04T15:42:21.236Z,36.56
2022-08-04T15:45:19.041Z,36.46
2022-08-04T15:48:32.522Z,36.57
2022-08-04T15:51:14.311Z,36.21
2022-08-04T15:54:23.488Z,36.05
2022-08-04T15:57:01.501Z,35.25
2022-08-04T16:00:00.540Z,36.66
2022-08-04T16:02:41.041Z,35.51
2022-08-04T16:05:39.485Z,36.60
2022-08-04T16:08:15.860Z,36.58
2022-08-04T16:10:46.658Z,35.07
2022-08-04T16:13:19.458Z,35.23
2022-08-04T16:15:50.677Z,36.13
2022-08-04T16:18:37.314Z,36.72
2022-08-04T16:21:07.873Z,36.17
2022-08-04T16:23:54.932Z,36.68
2022-08-04T16:26:45.688Z,35.98
2022-08-04T16:29:42.818Z,35.92
2022-08-04T16:32:20.873Z,35.70
2022-08-04T16:35:00.840Z,35.00
2022-08-04T16:37:33.772Z,35.35
2022-08-04T16:40:36.594Z,36.43
2022-08-04T16:43:09.032Z,34.83
2022-08-04T16:45:44.365Z,35.40
2022-08-04T16:48:13.284Z,35.33
2022-08-04T16:51:05.015Z,35.20
2022-08-04T16:53:52.643Z,35.13
2022-08-04T16:56:33.020Z,35.18
2022-08-04T16:59:08.439Z,34.85
2022-08-04T17:01:39.024Z,35.34
2022-08-04T17:04:07.667Z,35.33
2022-08-04T17:06:38.267Z,35.64
2022-08-04T17:09:10.386Z,35.08
2022-08-04T17:11:38.443Z,34.55
2022-08-04T17:14:06.862Z,34.85
2022-08-04T17:16:39.071Z,34.76
2022-08-04T17:19:24.057Z,33.96
2022-08-04T17:22:04.914Z,34.07
2022-08-04T17:24:35.252Z,34.49
2022-08-04T17:29:51.957Z,33.86
2022-08-04T17:32:23.621Z,33.89
2022-08-04T17:34:55.097Z,33.93
2022-08-04T17:37:40.906Z,34.10
2022-08-04T17:40:22.509Z,34.18
2022-08-04T17:43:03.308Z,34.26
2022-08-04T17:46:16.230Z,33.87
2022-08-04T17:49:05.836Z,33.93
2022-08-04T17:52:01.990Z,34.01
2022-08-04T17:54:36.524Z,32.90
2022-08-04T17:57:15.560Z,32.30
2022-08-04T17:59:55.481Z,32.14
2022-08-04T18:02:32.380Z,32.36
2022-08-04T18:05:07.391Z,32.32
2022-08-04T18:08:37.881Z,31.87
2022-08-04T18:10:52.675Z,31.73
2022-08-04T18:13:25.724Z,31.21
2022-08-04T18:16:02.566Z,31.01
2022-08-04T18:18:31.170Z,30.82
2022-08-04T18:21:02.807Z,30.62
2022-08-04T18:26:23.753Z,30.26
2022-08-04T18:28:52.493Z,30.06
2022-08-04T18:31:20.357Z,29.89
2022-08-04T18:33:57.060Z,29.64
2022-08-04T18:36:36.788Z,29.43
2022-08-04T18:39:13.046Z,29.23
2022-08-04T18:42:01.870Z,29.03
2022-08-04T18:44:32.179Z,28.84
2022-08-04T18:47:22.135Z,28.78
2022-08-04T18:52:45.379Z,28.49
2022-08-04T18:55:55.163Z,28.40
2022-08-04T19:00:51.505Z,28.06
2022-08-04T19:03:23.045Z,27.82
2022-08-04T19:05:51.789Z,27.66
2022-08-04T19:08:33.887Z,27.52
2022-08-04T19:11:28.737Z,27.37
2022-08-04T19:13:58.029Z,27.22
2022-08-04T19:16:27.735Z,26.86
2022-08-04T19:18:56.656Z,26.86
2022-08-04T19:21:58.665Z,26.81
2022-08-04T19:24:31.180Z,26.72
2022-08-04T19:27:07.219Z,26.51
2022-08-04T19:29:41.392Z,26.39
2022-08-04T19:32:14.828Z,26.40
2022-08-04T19:34:45.973Z,26.43
2022-08-04T19:37:20.406Z,26.38
2022-08-04T19:40:05.716Z,26.27
2022-08-04T19:42:34.704Z,26.21
2022-08-04T19:45:02.822Z,26.07
2022-08-04T19:48:12.186Z,25.88
2022-08-04T19:50:18.805Z,25.98
2022-08-04T19:52:51.726Z,25.89
2022-08-04T19:55:36.709Z,25.82
2022-08-04T19:58:07.406Z,25.72
2022-08-04T20:00:37.348Z,25.63
2022-08-04T20:03:11.440Z,25.61
2022-08-04T20:05:55.160Z,25.49
2022-08-04T20:08:24.982Z,25.50
2022-08-04T20:10:54.882Z,25.52
2022-08-04T20:13:30.593Z,25.47
2022-08-04T20:16:06.419Z,25.46
2022-08-04T20:18:56.812Z,25.37
2022-08-04T20:21:55.574Z,25.42
2022-08-04T20:24:39.385Z,25.29
2022-08-04T20:27:08.818Z,25.32
2022-08-04T20:29:40.640Z,25.20
2022-08-04T20:32:11.864Z,25.03
2022-08-04T20:34:44.012Z,25.05
2022-08-04T20:37:11.935Z,25.05
2022-08-04T20:39:43.611Z,25.02
2022-08-04T20:42:13.313Z,24.93
2022-08-04T20:44:46.183Z,24.91
2022-08-04T20:47:15.100Z,24.81
2022-08-04T20:49:43.312Z,24.75
2022-08-04T20:52:18.112Z,24.83
2022-08-04T20:54:49.294Z,24.78
2022-08-04T20:57:48.042Z,24.55
2022-08-04T21:00:14.562Z,24.50
2022-08-04T21:02:42.427Z,24.58
2022-08-04T21:05:12.504Z,24.53
2022-08-04T21:07:41.750Z,24.49
2022-08-04T21:10:11.874Z,24.55
2022-08-04T21:12:41.163Z,24.42
2022-08-04T21:15:13.581Z,24.36
2022-08-04T21:20:33.229Z,24.10
2022-08-04T21:25:56.519Z,24.00
2022-08-04T21:28:27.382Z,24.01
2022-08-04T21:30:55.956Z,23.99
2022-08-04T21:33:48.982Z,23.99
2022-08-04T21:36:19.746Z,23.79
2022-08-04T21:38:51.555Z,23.82
2022-08-04T21:41:24.638Z,23.69
2022-08-04T21:43:58.758Z,23.61
2022-08-04T21:46:27.226Z,23.67
2022-08-04T21:48:58.310Z,23.75
2022-08-04T21:51:59.095Z,23.63
2022-08-04T21:54:17.511Z,23.76
2022-08-04T21:56:50.835Z,23.71
2022-08-04T21:59:23.559Z,23.59
2022-08-04T22:02:01.077Z,23.38
2022-08-04T22:04:29.552Z,23.22
2022-08-04T22:06:57.495Z,23.17
2022-08-04T22:09:25.386Z,23.06
2022-08-04T22:11:56.985Z,23.09
2022-08-04T22:14:27.624Z,23.12
2022-08-04T22:16:58.714Z,23.11
2022-08-04T22:19:50.054Z,22.99
2022-08-04T22:22:24.629Z,23.22
2022-08-04T22:24:55.401Z,23.14
2022-08-04T22:27:47.324Z,23.10
2022-08-04T22:30:18.790Z,23.14
2022-08-04T22:32:48.008Z,23.03
2022-08-04T22:35:36.063Z,23.03
2022-08-04T22:38:21.879Z,23.11
2022-08-04T22:40:57.972Z,23.08
2022-08-04T22:43:31.799Z,23.02
2022-08-04T22:46:05.176Z,22.97
2022-08-04T22:48:35.833Z,23.05
2022-08-04T22:51:05.491Z,23.02
2022-08-04T22:53:33.491Z,23.04
2022-08-04T22:56:09.445Z,22.98
2022-08-04T22:58:45.303Z,23.03
2022-08-04T23:01:16.142Z,23.03
2022-08-04T23:03:55.359Z,22.96
2022-08-04T23:06:28.512Z,22.94
2022-08-04T23:08:57.240Z,22.94
2022-08-04T23:11:34.573Z,22.83
2022-08-04T23:14:04.222Z,22.75
2022-08-04T23:16:40.593Z,22.84
2022-08-04T23:19:15.467Z,22.82
2022-08-04T23:21:47.355Z,22.88
2022-08-04T23:24:29.848Z,23.02
2022-08-04T23:26:58.009Z,23.00
2022-08-04T23:29:27.471Z,22.97
2022-08-04T23:32:00.119Z,23.08
2022-08-04T23:34:30.019Z,23.25
2022-08-04T23:36:59.061Z,23.26
2022-08-04T23:40:03.287Z,23.26
2022-08-04T23:42:21.190Z,23.31
2022-08-04T23:44:49.782Z,23.52
2022-08-04T23:48:19.451Z,23.74
2022-08-04T23:50:07.965Z,23.48
2022-08-04T23:52:35.874Z,23.38
2022-08-04T23:55:03.749Z,23.38
2022-08-04T23:58:05.612Z,23.53
